Black Star — 9HA2911 — position and weather

sailwx.info

Track history (hours):
 
Tides and Currents Weather Stations Pressure Air Temp Water Temp Dewpoint Dewpoint Depression Visibility Wind Speed Wind Dir Waves Ship Positions

Black Star

Last reported at 2017-Feb-23 13:19 UTC. Time now 2017-Feb-24 03:48 UTC.
Position N 52°00' E 003°24'.

Length 128 m; draft 7.6 m.

Type: Ship (hazmat cat C). MMSI: 256714000.

Date/timePositionNaut miles runAvg speedWind from/ knotsBaromVisibWave heightAir tempDewpointWater temp
2017-Feb-23 13:19N 52°00' E 003°24'911.9
2017-Feb-23 12:33N 51°55' E 003°12'1111.1
2017-Feb-23 11:33N 51°52' E 002°55'1913.2
2017-Feb-23 10:05N 51°41' E 002°29'814.4
2017-Feb-23 09:32N 51°35' E 002°21'1414.1
2017-Feb-23 08:33N 51°24' E 002°08'1413.6
2017-Feb-23 07:34N 51°15' E 001°52'1312.6
2017-Feb-23 06:33N 51°04' E 001°39'6811.3
2017-Feb-23 00:32N 50°22' E 000°16'1312.3
2017-Feb-22 23:28N 50°19' W 000°05'3712.5
2017-Feb-22 20:28N 50°10' W 001°01'1313.8
2017-Feb-22 19:33N 50°07' W 001°20'1414.5
2017-Feb-22 18:33N 50°03' W 001°42'15213.7
2017-Feb-22 07:28N 48°58' W 005°13'1712.5
2017-Feb-22 06:04N 48°48' W 005°34'5912.7
2017-Feb-22 01:24N 47°57' W 006°20'52812.3
2017-Feb-20 06:33N 39°33' W 009°59'1212.1
2017-Feb-20 05:33N 39°21' W 009°58'1212.4
2017-Feb-20 04:33N 39°09' W 009°57'1212.2
2017-Feb-20 03:33N 38°56' W 009°57'1212.1
2017-Feb-20 02:33N 38°44' W 009°56'1212.3
2017-Feb-20 01:33N 38°32' W 009°55'1212.2
2017-Feb-20 00:33N 38°20' W 009°55'1212.1
2017-Feb-19 23:33N 38°08' W 009°55'2412.0
2017-Feb-19 21:32N 37°44' W 009°54'  
2017-Feb-17 17:32N 32°18' W 009°21'  
2017-Feb-13 17:17N 35°54' W 005°49'1011.5
2017-Feb-13 16:23N 35°57' W 005°36'1011.6
2017-Feb-13 15:33N 36°00' W 005°25'1212.0
2017-Feb-13 14:31N 36°04' W 005°11'  
Track history (hours):
 
Tides and Currents Weather Stations Pressure Air Temp Water Temp Dewpoint Dewpoint Depression Visibility Wind Speed Wind Dir Waves Ship Positions

Black Star

Last reported at 2017-Feb-23 13:19 UTC. Time now 2017-Feb-24 03:48 UTC.
Position N 52°00' E 003°24'.

Length 128 m; draft 7.6 m.

Type: Ship (hazmat cat C). MMSI: 256714000.

Date/timePositionNaut miles runAvg speedWind from/ knotsBaromVisibWave heightAir tempDewpointWater temp
2017-Feb-23 13:19N 52°00' E 003°24'911.9
2017-Feb-23 12:33N 51°55' E 003°12'1111.1
2017-Feb-23 11:33N 51°52' E 002°55'1913.2
2017-Feb-23 10:05N 51°41' E 002°29'814.4
2017-Feb-23 09:32N 51°35' E 002°21'1414.1
2017-Feb-23 08:33N 51°24' E 002°08'1413.6
2017-Feb-23 07:34N 51°15' E 001°52'1312.6
2017-Feb-23 06:33N 51°04' E 001°39'6811.3
2017-Feb-23 00:32N 50°22' E 000°16'1312.3
2017-Feb-22 23:28N 50°19' W 000°05'3712.5
2017-Feb-22 20:28N 50°10' W 001°01'1313.8
2017-Feb-22 19:33N 50°07' W 001°20'1414.5
2017-Feb-22 18:33N 50°03' W 001°42'15213.7
2017-Feb-22 07:28N 48°58' W 005°13'1712.5
2017-Feb-22 06:04N 48°48' W 005°34'5912.7
2017-Feb-22 01:24N 47°57' W 006°20'52812.3
2017-Feb-20 06:33N 39°33' W 009°59'1212.1
2017-Feb-20 05:33N 39°21' W 009°58'1212.4
2017-Feb-20 04:33N 39°09' W 009°57'1212.2
2017-Feb-20 03:33N 38°56' W 009°57'1212.1
2017-Feb-20 02:33N 38°44' W 009°56'1212.3
2017-Feb-20 01:33N 38°32' W 009°55'1212.2
2017-Feb-20 00:33N 38°20' W 009°55'1212.1
2017-Feb-19 23:33N 38°08' W 009°55'2412.0
2017-Feb-19 21:32N 37°44' W 009°54'  
2017-Feb-17 17:32N 32°18' W 009°21'  
2017-Feb-13 17:17N 35°54' W 005°49'1011.5
2017-Feb-13 16:23N 35°57' W 005°36'1011.6
2017-Feb-13 15:33N 36°00' W 005°25'1212.0
2017-Feb-13 14:31N 36°04' W 005°11'  

Dump ship's entire track history